createdAt,value
2022-09-09T00:02:26.557Z,55.14
2022-09-09T00:04:53.031Z,55.45
2022-09-09T00:07:21.291Z,55.34
2022-09-09T00:12:44.494Z,54.12
2022-09-09T00:15:10.971Z,54.61
2022-09-09T00:17:38.200Z,55.68
2022-09-09T00:20:05.499Z,55.67
2022-09-09T00:22:31.852Z,57.05
2022-09-09T00:27:42.193Z,54.94
2022-09-09T00:30:09.456Z,53.74
2022-09-09T00:32:37.786Z,54.21
2022-09-09T00:35:06.095Z,54.76
2022-09-09T00:37:32.522Z,55.43
2022-09-09T00:42:43.951Z,55.49
2022-09-09T00:45:11.216Z,56.51
2022-09-09T00:47:38.475Z,57.21
2022-09-09T00:50:05.783Z,58.05
2022-09-09T00:52:34.161Z,58.10
2022-09-09T00:57:44.955Z,56.00
2022-09-09T01:00:12.265Z,55.58
2022-09-09T01:02:39.561Z,56.93
2022-09-09T01:05:06.854Z,56.60
2022-09-09T01:07:34.116Z,55.89
2022-09-09T01:12:55.328Z,57.89
2022-09-09T01:15:21.756Z,57.99
2022-09-09T01:17:48.175Z,57.94
2022-09-09T01:20:15.497Z,58.85
2022-09-09T01:22:43.834Z,58.60
2022-09-09T01:27:55.238Z,57.18
2022-09-09T01:30:22.496Z,57.45
2022-09-09T01:32:49.761Z,57.06
2022-09-09T01:35:18.089Z,58.36
2022-09-09T01:37:44.516Z,57.70
2022-09-09T01:42:56.533Z,57.56
2022-09-09T01:45:23.867Z,58.57
2022-09-09T01:47:51.169Z,57.46
2022-09-09T01:50:17.604Z,58.56
2022-09-09T01:52:44.896Z,58.77
2022-09-09T01:57:57.082Z,56.40
2022-09-09T02:00:24.348Z,56.94
2022-09-09T02:02:50.863Z,57.97
2022-09-09T02:05:18.223Z,57.96
2022-09-09T02:07:45.501Z,57.98
2022-09-09T02:12:56.837Z,57.81
2022-09-09T02:15:24.134Z,57.89
2022-09-09T02:17:50.673Z,58.34
2022-09-09T02:20:18.022Z,57.79
2022-09-09T02:22:45.383Z,57.01
2022-09-09T02:28:09.313Z,57.11
2022-09-09T02:30:36.676Z,58.81
2022-09-09T02:33:04.206Z,59.01
2022-09-09T02:35:30.655Z,58.00
2022-09-09T02:37:57.957Z,58.20
2022-09-09T02:43:20.432Z,59.24
2022-09-09T02:45:47.777Z,57.82
2022-09-09T02:48:14.240Z,57.61
2022-09-09T02:50:40.717Z,57.42
2022-09-09T02:53:08.085Z,57.65
2022-09-09T02:58:30.492Z,57.52
2022-09-09T03:00:57.039Z,58.52
2022-09-09T03:03:23.518Z,58.84
2022-09-09T03:05:49.945Z,60.12
2022-09-09T03:08:16.377Z,59.51
2022-09-09T03:13:37.739Z,59.32
2022-09-09T03:16:04.374Z,60.42
2022-09-09T03:18:31.835Z,60.31
2022-09-09T03:20:58.370Z,59.96
2022-09-09T03:23:25.746Z,60.63
2022-09-09T03:28:36.552Z,59.19
2022-09-09T03:31:03.070Z,59.32
2022-09-09T03:33:29.524Z,59.98
2022-09-09T03:35:55.951Z,59.65
2022-09-09T03:38:22.420Z,58.88
2022-09-09T03:43:34.745Z,58.88
2022-09-09T03:46:02.110Z,58.79
2022-09-09T03:48:29.589Z,58.58
2022-09-09T03:50:56.141Z,57.92
2022-09-09T03:53:22.568Z,58.38
2022-09-09T03:58:43.180Z,59.35
2022-09-09T04:01:10.601Z,58.65
2022-09-09T04:03:37.090Z,58.89
2022-09-09T04:06:03.496Z,57.96
2022-09-09T04:08:29.988Z,58.06
2022-09-09T04:13:42.475Z,57.32
2022-09-09T04:16:08.994Z,57.42
2022-09-09T04:18:36.423Z,57.62
2022-09-09T04:21:05.663Z,57.14
2022-09-09T04:23:32.921Z,56.79
2022-09-09T04:28:56.253Z,56.64
2022-09-09T04:31:22.734Z,56.63
2022-09-09T04:33:50.061Z,56.33
2022-09-09T04:36:16.596Z,56.15
2022-09-09T04:38:44.927Z,56.22
2022-09-09T04:43:57.877Z,56.40
2022-09-09T04:46:26.202Z,56.48
2022-09-09T04:48:53.446Z,56.53
2022-09-09T04:51:19.831Z,56.77
2022-09-09T04:53:46.256Z,56.69
2022-09-09T04:59:00.329Z,56.33
2022-09-09T05:01:26.927Z,56.28
2022-09-09T05:03:55.223Z,56.41
2022-09-09T05:06:21.704Z,56.37
2022-09-09T05:08:48.189Z,56.45
2022-09-09T05:14:00.372Z,56.08
2022-09-09T05:16:28.700Z,56.32
2022-09-09T05:18:55.222Z,56.24
2022-09-09T05:21:21.614Z,56.96
2022-09-09T05:23:48.086Z,57.79
2022-09-09T05:28:58.375Z,56.80
2022-09-09T05:31:29.329Z,57.63
2022-09-09T05:33:57.702Z,58.78
2022-09-09T05:36:24.156Z,60.75
2022-09-09T05:38:50.640Z,59.11
2022-09-09T05:44:03.901Z,62.29
2022-09-09T05:46:33.036Z,60.20
2022-09-09T05:49:02.824Z,59.26
2022-09-09T05:51:31.289Z,59.13
2022-09-09T05:53:59.839Z,60.42
2022-09-09T05:59:21.485Z,65.08
2022-09-09T06:01:48.185Z,65.09
2022-09-09T06:04:14.696Z,62.04
2022-09-09T06:06:42.982Z,61.69
2022-09-09T06:09:09.411Z,60.64
2022-09-09T06:14:29.778Z,60.45
2022-09-09T06:16:58.961Z,60.49
2022-09-09T06:19:25.363Z,60.08
2022-09-09T06:21:51.798Z,59.93
2022-09-09T06:24:20.061Z,60.40
2022-09-09T06:29:30.461Z,61.84
2022-09-09T06:31:56.964Z,61.87
2022-09-09T06:34:24.237Z,61.78
2022-09-09T06:36:50.684Z,61.21
2022-09-09T06:39:17.214Z,60.67
2022-09-09T06:44:29.485Z,61.42
2022-09-09T06:46:58.684Z,61.39
2022-09-09T06:49:25.148Z,61.10
2022-09-09T06:51:54.336Z,61.81
2022-09-09T06:54:22.599Z,62.42
2022-09-09T06:59:43.853Z,61.07
2022-09-09T07:02:12.196Z,61.13
2022-09-09T07:04:41.383Z,61.07
2022-09-09T07:07:07.854Z,60.90
2022-09-09T07:09:35.112Z,61.17
2022-09-09T07:14:56.937Z,62.07
2022-09-09T07:17:23.450Z,61.59
2022-09-09T07:19:52.642Z,61.72
2022-09-09T07:22:20.880Z,61.04
2022-09-09T07:24:49.162Z,60.92
2022-09-09T07:30:03.383Z,61.73
2022-09-09T07:32:30.598Z,62.15
2022-09-09T07:34:57.060Z,61.18
2022-09-09T07:37:24.316Z,61.82
2022-09-09T07:39:50.777Z,62.05
2022-09-09T07:45:12.930Z,61.21
2022-09-09T07:47:40.283Z,61.53
2022-09-09T07:50:07.555Z,61.33
2022-09-09T07:52:34.031Z,61.41
2022-09-09T07:55:01.616Z,61.50
2022-09-09T08:00:14.777Z,61.99
2022-09-09T08:02:42.106Z,62.56
2022-09-09T08:05:09.442Z,62.65
2022-09-09T08:07:36.731Z,62.47
2022-09-09T08:10:03.157Z,62.72
2022-09-09T08:15:13.894Z,62.70
2022-09-09T08:17:40.306Z,62.80
2022-09-09T08:20:07.636Z,62.67
2022-09-09T08:22:34.160Z,62.39
2022-09-09T08:25:01.428Z,62.37
2022-09-09T08:30:25.359Z,62.34
2022-09-09T08:32:53.934Z,62.36
2022-09-09T08:35:20.548Z,61.98
2022-09-09T08:37:51.598Z,61.96
2022-09-09T08:40:19.150Z,62.50
2022-09-09T08:45:40.315Z,61.88
2022-09-09T08:48:06.810Z,61.49
2022-09-09T08:50:34.067Z,60.99
2022-09-09T08:53:00.505Z,61.45
2022-09-09T08:55:27.813Z,61.77
2022-09-09T09:00:49.006Z,61.54
2022-09-09T09:03:15.466Z,61.65
2022-09-09T09:05:41.883Z,61.83
2022-09-09T09:08:08.335Z,62.11
2022-09-09T09:10:42.285Z,62.31
2022-09-09T09:15:54.431Z,60.93
2022-09-09T09:18:21.871Z,61.54
2022-09-09T09:20:49.200Z,61.79
2022-09-09T09:23:15.625Z,61.98
2022-09-09T09:25:42.992Z,61.90
2022-09-09T09:30:54.706Z,62.77
2022-09-09T09:33:22.218Z,62.61
2022-09-09T09:35:49.596Z,62.77
2022-09-09T09:41:03.429Z,62.49
2022-09-09T09:46:17.879Z,62.33
2022-09-09T09:48:44.720Z,63.04
2022-09-09T09:51:11.148Z,62.85
2022-09-09T09:53:38.587Z,63.18
2022-09-09T09:56:05.058Z,63.12
2022-09-09T10:01:26.730Z,63.54
2022-09-09T10:03:53.205Z,63.47
2022-09-09T10:06:20.624Z,63.38
2022-09-09T10:08:48.028Z,63.33
2022-09-09T10:11:15.416Z,63.11
2022-09-09T10:16:36.834Z,62.99
2022-09-09T10:19:05.012Z,63.33
2022-09-09T10:21:33.409Z,63.06
2022-09-09T10:24:00.184Z,63.20
2022-09-09T10:26:26.698Z,63.04
2022-09-09T10:31:37.138Z,62.96
2022-09-09T10:34:04.550Z,62.22
2022-09-09T10:36:31.041Z,62.39
2022-09-09T10:38:57.496Z,62.38
2022-09-09T10:41:24.013Z,62.56
2022-09-09T10:46:34.343Z,63.09
2022-09-09T10:49:00.934Z,63.08
2022-09-09T10:51:28.317Z,63.01
2022-09-09T10:53:54.795Z,63.41
2022-09-09T10:56:22.181Z,63.15
2022-09-09T11:01:43.600Z,62.79
2022-09-09T11:04:10.200Z,63.15
2022-09-09T11:06:36.750Z,63.07
2022-09-09T11:09:03.234Z,63.00
2022-09-09T11:11:29.691Z,63.01
2022-09-09T11:16:41.222Z,62.80
2022-09-09T11:19:07.692Z,63.12
2022-09-09T11:21:34.185Z,63.73
2022-09-09T11:24:01.602Z,65.89
2022-09-09T11:26:28.092Z,66.70
2022-09-09T11:28:54.567Z,67.14
2022-09-09T11:31:21.141Z,67.05
2022-09-09T11:33:48.551Z,67.42
2022-09-09T11:36:15.019Z,67.92
2022-09-09T11:38:41.457Z,67.87
2022-09-09T11:41:07.908Z,68.51
2022-09-09T11:43:35.302Z,68.15
2022-09-09T11:46:02.779Z,68.59
2022-09-09T11:48:30.260Z,69.19
2022-09-09T11:50:56.723Z,68.62
2022-09-09T11:53:23.209Z,68.05
2022-09-09T11:55:49.653Z,68.78
2022-09-09T11:58:17.094Z,68.38
2022-09-09T12:00:43.575Z,68.35
2022-09-09T12:03:10.066Z,68.23
2022-09-09T12:05:37.475Z,68.60
2022-09-09T12:08:03.953Z,69.62
2022-09-09T12:10:31.361Z,67.78
2022-09-09T12:12:58.777Z,66.61
2022-09-09T12:15:26.267Z,65.70
2022-09-09T12:17:53.689Z,65.75
2022-09-09T12:20:21.055Z,66.06
2022-09-09T12:22:48.465Z,65.69
2022-09-09T12:25:14.930Z,65.73
2022-09-09T12:27:42.428Z,65.53
2022-09-09T12:30:08.888Z,65.35
2022-09-09T12:32:36.258Z,65.71
2022-09-09T12:35:04.436Z,65.82
2022-09-09T12:37:31.803Z,66.14
2022-09-09T12:39:58.312Z,66.30
2022-09-09T12:42:24.785Z,65.86
2022-09-09T12:44:52.191Z,65.99
2022-09-09T12:47:18.659Z,66.01
2022-09-09T12:49:45.149Z,65.76
2022-09-09T12:52:11.608Z,65.40
2022-09-09T12:54:38.082Z,65.00
2022-09-09T12:57:04.553Z,65.06
2022-09-09T12:59:32.012Z,64.01
2022-09-09T13:04:52.582Z,64.50
2022-09-09T13:07:19.999Z,65.06
2022-09-09T13:09:47.366Z,65.45
2022-09-09T13:12:14.720Z,65.68
2022-09-09T13:14:41.171Z,65.21
2022-09-09T13:20:02.862Z,65.32
2022-09-09T13:22:29.339Z,66.21
2022-09-09T13:24:55.823Z,66.24
2022-09-09T13:27:23.232Z,66.03
2022-09-09T13:29:50.649Z,65.60
2022-09-09T13:35:13.061Z,66.03
2022-09-09T13:37:40.479Z,66.50
2022-09-09T13:40:07.059Z,67.52
2022-09-09T13:42:34.761Z,67.83
2022-09-09T13:45:01.225Z,67.81
2022-09-09T13:50:13.027Z,67.62
2022-09-09T13:52:39.544Z,68.17
2022-09-09T13:55:08.637Z,67.57
2022-09-09T13:57:35.097Z,67.35
2022-09-09T14:00:04.966Z,67.05
2022-09-09T14:05:18.630Z,67.38
2022-09-09T14:07:45.096Z,67.82
2022-09-09T14:10:11.635Z,68.16
2022-09-09T14:12:38.103Z,67.64
2022-09-09T14:15:04.574Z,67.03
2022-09-09T14:20:26.082Z,67.03
2022-09-09T14:22:52.602Z,67.28
2022-09-09T14:25:19.060Z,67.39
2022-09-09T14:27:46.497Z,67.79
2022-09-09T14:30:12.979Z,67.05
2022-09-09T14:35:25.251Z,66.70
2022-09-09T14:37:51.700Z,67.58
2022-09-09T14:40:18.438Z,67.52
2022-09-09T14:42:45.898Z,67.33
2022-09-09T14:45:12.349Z,68.08
2022-09-09T14:50:33.020Z,67.84
2022-09-09T14:52:59.489Z,67.16
2022-09-09T14:55:26.862Z,66.93
2022-09-09T14:57:54.229Z,67.20
2022-09-09T15:00:21.684Z,66.20
2022-09-09T15:05:32.090Z,63.67
2022-09-09T15:07:58.592Z,63.47
2022-09-09T15:10:26.126Z,63.10
2022-09-09T15:12:52.582Z,62.88
2022-09-09T15:15:20.037Z,62.52
2022-09-09T15:20:30.620Z,62.21
2022-09-09T15:22:57.101Z,61.75
2022-09-09T15:25:23.563Z,61.77
2022-09-09T15:27:50.089Z,61.75
2022-09-09T15:30:16.553Z,61.53
2022-09-09T15:35:37.088Z,61.39
2022-09-09T15:38:03.569Z,61.05
2022-09-09T15:40:30.963Z,61.33
2022-09-09T15:42:57.437Z,61.16
2022-09-09T15:45:23.890Z,60.97
2022-09-09T15:50:44.297Z,60.83
2022-09-09T15:53:10.919Z,60.83
2022-09-09T15:55:37.386Z,60.50
2022-09-09T15:58:03.868Z,60.65
2022-09-09T16:00:31.288Z,60.91
2022-09-09T16:05:41.614Z,60.92
2022-09-09T16:08:08.074Z,61.05
2022-09-09T16:10:34.659Z,61.08
2022-09-09T16:13:01.094Z,60.71
2022-09-09T16:15:27.562Z,60.82
2022-09-09T16:20:38.219Z,61.29
2022-09-09T16:23:04.722Z,61.15
2022-09-09T16:25:32.098Z,61.57
2022-09-09T16:27:58.560Z,61.06
2022-09-09T16:30:26.263Z,61.04
2022-09-09T16:35:46.956Z,61.18
2022-09-09T16:38:13.516Z,60.95
2022-09-09T16:40:39.959Z,60.81
2022-09-09T16:43:06.394Z,60.90
2022-09-09T16:45:32.902Z,60.93
2022-09-09T16:50:44.355Z,61.05
2022-09-09T16:53:10.807Z,60.71
2022-09-09T16:55:38.206Z,60.86
2022-09-09T16:58:04.687Z,60.41
2022-09-09T17:00:31.162Z,59.87
2022-09-09T17:05:51.254Z,60.09
2022-09-09T17:08:18.683Z,60.04
2022-09-09T17:10:45.144Z,59.85
2022-09-09T17:13:12.552Z,60.23
2022-09-09T17:15:39.071Z,60.19
2022-09-09T17:21:00.552Z,59.98
2022-09-09T17:23:27.032Z,60.37
2022-09-09T17:25:53.491Z,60.26
2022-09-09T17:28:20.919Z,60.45
2022-09-09T17:30:47.412Z,60.25
2022-09-09T17:35:59.719Z,59.99
2022-09-09T17:38:28.715Z,60.01
2022-09-09T17:40:55.364Z,59.70
2022-09-09T17:43:21.823Z,59.53
2022-09-09T17:45:48.287Z,59.52
2022-09-09T17:51:00.577Z,59.11
2022-09-09T17:53:27.947Z,58.84
2022-09-09T17:55:55.308Z,59.04
2022-09-09T17:58:21.768Z,59.19
2022-09-09T18:00:48.434Z,59.61
2022-09-09T18:06:00.782Z,59.03
2022-09-09T18:08:27.237Z,59.13
2022-09-09T18:10:53.709Z,58.88
2022-09-09T18:13:21.113Z,58.99
2022-09-09T18:15:49.765Z,58.76
2022-09-09T18:21:11.187Z,58.79
2022-09-09T18:23:37.649Z,58.84
2022-09-09T18:26:04.180Z,58.48
2022-09-09T18:28:30.761Z,58.75
2022-09-09T18:30:57.407Z,58.88
2022-09-09T18:36:18.861Z,58.61
2022-09-09T18:38:45.385Z,58.72
2022-09-09T18:41:12.836Z,58.75
2022-09-09T18:43:39.763Z,58.28
2022-09-09T18:46:06.347Z,58.38
2022-09-09T18:51:17.998Z,58.43
2022-09-09T18:53:44.466Z,58.18
2022-09-09T18:56:11.834Z,58.54
2022-09-09T18:58:38.386Z,58.20
2022-09-09T19:01:04.966Z,58.29
2022-09-09T19:06:15.445Z,57.94
2022-09-09T19:08:41.995Z,58.11
2022-09-09T19:11:08.636Z,57.76
2022-09-09T19:13:36.088Z,57.78
2022-09-09T19:16:03.592Z,57.81
2022-09-09T19:21:25.040Z,57.43
2022-09-09T19:23:51.484Z,57.64
2022-09-09T19:26:18.053Z,57.71
2022-09-09T19:28:45.495Z,57.89
2022-09-09T19:31:11.975Z,57.79
2022-09-09T19:36:32.759Z,57.39
2022-09-09T19:39:00.161Z,57.58
2022-09-09T19:41:26.673Z,57.71
2022-09-09T19:43:53.403Z,57.60
2022-09-09T19:46:19.944Z,57.19
2022-09-09T19:51:31.339Z,57.30
2022-09-09T19:53:57.785Z,57.53
2022-09-09T19:56:25.154Z,57.50
2022-09-09T19:58:51.620Z,57.77
2022-09-09T20:01:18.212Z,57.68
2022-09-09T20:06:31.015Z,57.62
2022-09-09T20:08:58.363Z,57.31
2022-09-09T20:11:25.743Z,57.44
2022-09-09T20:13:52.170Z,57.27
2022-09-09T20:16:19.563Z,56.99
2022-09-09T20:21:44.014Z,57.50
2022-09-09T20:24:13.629Z,57.41
2022-09-09T20:26:40.065Z,57.13
2022-09-09T20:29:06.500Z,57.46
2022-09-09T20:31:33.853Z,57.49
2022-09-09T20:36:55.374Z,57.21
2022-09-09T20:39:22.742Z,57.18
2022-09-09T20:41:49.139Z,57.40
2022-09-09T20:44:16.464Z,57.20
2022-09-09T20:46:43.827Z,57.13
2022-09-09T20:52:04.216Z,57.16
2022-09-09T20:54:31.514Z,57.10
2022-09-09T20:56:58.832Z,57.00
2022-09-09T20:59:25.252Z,57.02
2022-09-09T21:01:53.648Z,56.97
2022-09-09T21:07:05.316Z,57.25
2022-09-09T21:09:31.729Z,56.92
2022-09-09T21:12:00.012Z,56.81
2022-09-09T21:14:26.420Z,57.21
2022-09-09T21:16:52.852Z,57.16
2022-09-09T21:22:03.959Z,56.76
2022-09-09T21:24:30.339Z,56.86
2022-09-09T21:26:56.841Z,56.93
2022-09-09T21:29:23.346Z,56.98
2022-09-09T21:31:50.565Z,56.88
2022-09-09T21:34:16.982Z,57.08
2022-09-09T21:36:43.392Z,57.12
2022-09-09T21:39:10.730Z,57.23
2022-09-09T21:41:37.125Z,56.82
2022-09-09T21:44:04.400Z,56.67
2022-09-09T21:46:30.927Z,56.96
2022-09-09T21:48:57.355Z,56.72
2022-09-09T21:51:24.585Z,56.70
2022-09-09T21:53:50.990Z,56.98
2022-09-09T21:56:18.229Z,56.77
2022-09-09T21:58:44.685Z,56.70
2022-09-09T22:01:11.941Z,56.90
2022-09-09T22:03:38.605Z,56.68
2022-09-09T22:06:05.860Z,56.73
2022-09-09T22:08:33.098Z,56.54
2022-09-09T22:10:59.584Z,56.71
2022-09-09T22:13:26.059Z,56.49
2022-09-09T22:15:52.622Z,56.59
2022-09-09T22:18:19.900Z,56.43
2022-09-09T22:20:46.439Z,56.68
2022-09-09T22:23:12.815Z,56.65
2022-09-09T22:25:40.035Z,56.51
2022-09-09T22:28:07.294Z,56.69
2022-09-09T22:30:33.789Z,56.67
2022-09-09T22:33:02.080Z,56.74
2022-09-09T22:35:28.482Z,56.75
2022-09-09T22:37:54.971Z,56.50
2022-09-09T22:40:23.253Z,56.48
2022-09-09T22:42:52.758Z,56.49
2022-09-09T22:45:19.450Z,56.45
2022-09-09T22:47:47.835Z,56.48
2022-09-09T22:50:16.123Z,56.40
2022-09-09T22:52:44.388Z,56.42
2022-09-09T22:55:12.708Z,56.33
2022-09-09T22:57:39.107Z,56.25
2022-09-09T23:00:05.582Z,56.50
2022-09-09T23:02:31.953Z,56.19
2022-09-09T23:05:00.274Z,56.35
2022-09-09T23:10:14.289Z,56.44
2022-09-09T23:12:41.539Z,56.19
2022-09-09T23:15:08.741Z,56.40
2022-09-09T23:17:37.038Z,56.05
2022-09-09T23:20:05.303Z,56.42
2022-09-09T23:25:26.637Z,56.12
2022-09-09T23:27:53.870Z,56.16
2022-09-09T23:30:22.124Z,55.94
2022-09-09T23:32:50.441Z,55.82
2022-09-09T23:35:19.849Z,55.94
2022-09-09T23:40:40.018Z,56.01
2022-09-09T23:43:06.433Z,55.95
2022-09-09T23:45:34.693Z,55.93
2022-09-09T23:48:01.134Z,56.32
2022-09-09T23:50:27.543Z,55.79
2022-09-09T23:55:38.081Z,56.04
2022-09-09T23:58:07.238Z,55.73
